YSWG/WGA METAR and TAF weather

Enter ICAO airport designator
Station Type Date Time Source
YSWG METAR 2018/12/18 19:00 UTC NOAA

YSWG 181900Z AUTO 09010KT 9999 // NCD 21/15 Q1011


Station Type Date Time Source
YSWG Decoded METAR 2018/12/18 19:00 UTC NOAA

Wagga Airport, Australia (YSWG) 35-09S 147-27E 213M
Dec 18, 2018 - 02:00 PM EST / 2018.12.18 1900 UTC
Wind: from the E (090 degrees) at 12 MPH (10 KT):0
Visibility: greater than 7 mile(s):0
Temperature: 69 F (21 C)
Dew Point: 59 F (15 C)
Relative Humidity: 68%
Pressure (altimeter): 29.85 in. Hg (1011 hPa)
ob: YSWG 181900Z AUTO 09010KT 9999 // NCD 21/15 Q1011
cycle: 19

Station Type Date Time Source
YSWG TAF 2018/05/25 18:03 UTC NOAA

TAF YSWG 251649Z 2518/2608 07008KT CAVOK


Example: see airport list